Time;durP1;ratioP1;P1;durP2;ratioP2;P2;SDS_P1;SDS_P2;PMS_P1;PMS_P2;Temp;Humidity;BMP_temperature;BMP_pressure;BME280_temperature;BME280_humidity;BME280_pressure;Samples;Min_cycle;Max_cycle;Signal;HPM_P1;HPM_P2
2022/07/15 00:01:09;;;;;;;;;;;;;;;;;;4997446;28;20023;-84
2022/07/15 00:03:35;;;;;;;;;;;;;;;;;;5000499;28;19917;-85
2022/07/15 00:06:00;;;;;;;;;;;;;;;;;;4994906;28;20188;-84
2022/07/15 00:08:27;;;;;;;;;;;;;;;;;;4996742;28;19917;-84
2022/07/15 00:10:52;;;;;;;;;;;;;;;;;;4997199;28;19913;-84
2022/07/15 00:13:17;;;;;;;;;;;;;;;;;;4999808;28;20237;-84
2022/07/15 00:15:43;;;;;;;;;;;;;;;;;;4999496;28;20367;-84
2022/07/15 00:18:08;;;;;;;;;;;;;;;;;;4991811;28;19972;-84
2022/07/15 00:20:33;;;;;;;;;;;;;;;;;;5000841;28;19922;-84
2022/07/15 00:22:58;;;;;;;;;;;;;;;;;;4999192;28;20642;-84
2022/07/15 00:25:24;;;;;;;;;;;;;;;;;;4997185;28;19924;-84
2022/07/15 00:27:49;;;;;;;;;;;;;;;;;;4996515;28;20368;-84
2022/07/15 00:30:14;;;;;;;;;;;;;;;;;;5000160;28;19914;-84
2022/07/15 00:32:40;;;;;;;;;;;;;;;;;;4993310;28;19929;-84
2022/07/15 00:35:05;;;;;;;;;;;;;;;;;;5000250;28;20009;-84
2022/07/15 00:37:30;;;;;;;;;;;;;;;;;;4992829;28;20380;-84
2022/07/15 00:39:55;;;;;;;;;;;;;;;;;;4996848;28;19918;-85
2022/07/15 00:45:04;;;;;;;;;;;;;;;;;;4993074;28;19968;-84
2022/07/15 00:47:29;;;;;;;;;;;;;;;;;;4998223;28;19925;-84
2022/07/15 00:49:54;;;;;;;;;;;;;;;;;;4999774;28;20348;-85
2022/07/15 00:52:20;;;;;;;;;;;;;;;;;;4996764;28;20435;-84
2022/07/15 00:54:45;;;;;;;;;;;;;;;;;;4997484;28;20100;-84
2022/07/15 00:57:10;;;;;;;;;;;;;;;;;;4999461;28;19944;-84
2022/07/15 00:59:36;;;;;;;;;;;;;;;;;;5001554;28;19960;-85
2022/07/15 01:02:02;;;;;;;;;;;;;;;;;;5003547;28;19925;-84
2022/07/15 01:04:27;;;;;;;;;;;;;;;;;;4994628;28;19949;-85
2022/07/15 01:06:52;;;;;;;;;;;;;;;;;;4998610;28;19918;-85
2022/07/15 01:09:19;;;;;;;;;;;;;;;;;;4992470;28;20402;-84
2022/07/15 01:11:44;;;;;;;;;;;;;;;;;;4997810;28;20364;-84
2022/07/15 01:14:09;;;;;;;;;;;;;;;;;;5000840;28;20001;-85
2022/07/15 01:16:35;;;;;;;;;;;;;;;;;;5001303;28;19961;-85
2022/07/15 01:19:00;;;;;;;;;;;;;;;;;;5003562;28;20008;-85
2022/07/15 01:21:25;;;;;;;;;;;;;;;;;;5000545;28;19921;-86
2022/07/15 01:23:50;;;;;;;;;;;;;;;;;;5001125;28;20024;-85
2022/07/15 01:26:15;;;;;;;;;;;;;;;;;;5002112;28;20350;-85
2022/07/15 01:28:40;;;;;;;;;;;;;;;;;;5001243;28;20009;-85
2022/07/15 01:31:06;;;;;;;;;;;;;;;;;;5005179;28;20291;-85
2022/07/15 01:33:31;;;;;;;;;;;;;;;;;;5002141;28;19918;-84
2022/07/15 01:35:57;;;;;;;;;;;;;;;;;;5005813;28;20017;-85
2022/07/15 01:38:22;;;;;;;;;;;;;;;;;;4998326;28;20314;-85
2022/07/15 01:40:47;;;;;;;;;;;;;;;;;;4999426;28;19992;-84
2022/07/15 01:43:12;;;;;;;;;;;;;;;;;;4998663;28;20000;-84
2022/07/15 01:45:37;;;;;;;;;;;;;;;;;;4999119;28;19964;-84
2022/07/15 01:48:02;;;;;;;;;;;;;;;;;;4997808;28;20008;-85
2022/07/15 01:50:28;;;;;;;;;;;;;;;;;;4997105;28;19914;-84
2022/07/15 01:52:53;;;;;;;;;;;;;;;;;;4993560;28;19913;-84
2022/07/15 01:55:18;;;;;;;;;;;;;;;;;;4999937;28;19991;-84
2022/07/15 01:57:43;;;;;;;;;;;;;;;;;;4995739;28;19921;-84
2022/07/15 02:00:11;;;;;;;;;;;;;;;;;;4998122;28;19928;-83
2022/07/15 02:02:36;;;;;;;;;;;;;;;;;;4993548;28;19918;-84
2022/07/15 02:05:02;;;;;;;;;;;;;;;;;;4995654;28;19927;-84
2022/07/15 02:07:28;;;;;;;;;;;;;;;;;;4981055;28;19921;-85
2022/07/15 02:09:53;;;;;;;;;;;;;;;;;;4999454;28;19917;-84
2022/07/15 02:12:18;;;;;;;;;;;;;;;;;;5001195;28;19917;-84
2022/07/15 02:14:43;;;;;;;;;;;;;;;;;;5002691;28;20046;-83
2022/07/15 02:17:08;;;;;;;;;;;;;;;;;;5001238;28;19929;-84
2022/07/15 02:19:33;;;;;;;;;;;;;;;;;;4999324;28;20041;-86
2022/07/15 02:21:59;;;;;;;;;;;;;;;;;;4999389;28;19977;-84
2022/07/15 02:24:24;;;;;;;;;;;;;;;;;;5003976;28;19913;-85
2022/07/15 02:26:49;;;;;;;;;;;;;;;;;;4997828;28;20149;-85
2022/07/15 02:29:14;;;;;;;;;;;;;;;;;;4997187;28;20008;-84
2022/07/15 02:31:39;;;;;;;;;;;;;;;;;;4999242;28;19929;-82
2022/07/15 02:34:05;;;;;;;;;;;;;;;;;;4996699;28;20144;-84
2022/07/15 02:36:30;;;;;;;;;;;;;;;;;;4994893;28;19921;-85
2022/07/15 02:38:55;;;;;;;;;;;;;;;;;;4998089;28;19914;-84
2022/07/15 02:41:20;;;;;;;;;;;;;;;;;;4999286;28;20380;-84
2022/07/15 02:43:46;;;;;;;;;;;;;;;;;;5001245;28;20415;-84
2022/07/15 02:46:11;;;;;;;;;;;;;;;;;;4999273;28;20298;-84
2022/07/15 02:48:36;;;;;;;;;;;;;;;;;;5002193;28;20422;-84
2022/07/15 02:51:01;;;;;;;;;;;;;;;;;;5007449;28;19914;-84
2022/07/15 02:53:28;;;;;;;;;;;;;;;;;;4997259;28;20151;-85
2022/07/15 02:55:53;;;;;;;;;;;;;;;;;;5000289;28;19918;-84
2022/07/15 02:58:19;;;;;;;;;;;;;;;;;;5000493;28;19950;-84
2022/07/15 03:00:45;;;;;;;;;;;;;;;;;;5002074;28;19917;-84
2022/07/15 03:03:10;;;;;;;;;;;;;;;;;;4993581;28;19917;-85
2022/07/15 03:05:35;;;;;;;;;;;;;;;;;;4995579;28;19960;-85
2022/07/15 03:08:00;;;;;;;;;;;;;;;;;;4999521;28;19968;-85
2022/07/15 03:10:25;;;;;;;;;;;;;;;;;;4999574;28;20012;-85
2022/07/15 03:12:50;;;;;;;;;;;;;;;;;;4995172;28;20426;-84
2022/07/15 03:15:16;;;;;;;;;;;;;;;;;;5001038;28;19972;-86
2022/07/15 03:17:41;;;;;;;;;;;;;;;;;;5001147;28;19921;-85
2022/07/15 03:20:06;;;;;;;;;;;;;;;;;;4995075;28;19963;-85
2022/07/15 03:22:31;;;;;;;;;;;;;;;;;;4996798;28;19960;-84
2022/07/15 03:24:56;;;;;;;;;;;;;;;;;;4995899;28;19915;-85
2022/07/15 03:27:21;;;;;;;;;;;;;;;;;;4997502;28;19972;-85
2022/07/15 03:29:47;;;;;;;;;;;;;;;;;;4997436;28;20000;-85
2022/07/15 03:32:15;;;;;;;;;;;;;;;;;;4997588;28;20019;-85
2022/07/15 03:34:40;;;;;;;;;;;;;;;;;;4997952;28;20591;-85
2022/07/15 03:37:05;;;;;;;;;;;;;;;;;;4995458;28;19933;-84
2022/07/15 03:39:31;;;;;;;;;;;;;;;;;;4996213;28;19922;-84
2022/07/15 03:41:56;;;;;;;;;;;;;;;;;;4996240;28;19935;-85
2022/07/15 03:44:21;;;;;;;;;;;;;;;;;;4994094;28;19917;-85
2022/07/15 03:46:46;;;;;;;;;;;;;;;;;;4998421;28;19976;-84
2022/07/15 03:49:11;;;;;;;;;;;;;;;;;;4993489;28;20363;-85
2022/07/15 03:51:36;;;;;;;;;;;;;;;;;;5001823;28;19918;-84
2022/07/15 03:54:02;;;;;;;;;;;;;;;;;;4994930;28;20384;-84
2022/07/15 03:56:27;;;;;;;;;;;;;;;;;;4997661;28;19925;-84
2022/07/15 03:58:52;;;;;;;;;;;;;;;;;;4995425;28;21091;-83
2022/07/15 04:01:17;;;;;;;;;;;;;;;;;;4996156;28;20396;-84
2022/07/15 04:03:42;;;;;;;;;;;;;;;;;;4996868;28;19914;-84
2022/07/15 04:06:07;;;;;;;;;;;;;;;;;;4998643;28;20290;-85
2022/07/15 04:08:33;;;;;;;;;;;;;;;;;;4999089;28;19920;-86
2022/07/15 04:10:58;;;;;;;;;;;;;;;;;;4996492;28;20263;-85
2022/07/15 04:13:23;;;;;;;;;;;;;;;;;;4997003;28;20008;-85
2022/07/15 04:15:48;;;;;;;;;;;;;;;;;;4996893;28;20058;-85
2022/07/15 04:18:13;;;;;;;;;;;;;;;;;;4992338;28;20363;-85
2022/07/15 04:20:38;;;;;;;;;;;;;;;;;;5001858;28;19969;-84
2022/07/15 04:23:04;;;;;;;;;;;;;;;;;;5001359;28;19917;-85
2022/07/15 04:25:29;;;;;;;;;;;;;;;;;;4995744;28;19914;-84
2022/07/15 04:27:54;;;;;;;;;;;;;;;;;;4996179;28;20008;-83
2022/07/15 04:30:19;;;;;;;;;;;;;;;;;;4991664;28;19996;-84
2022/07/15 04:32:44;;;;;;;;;;;;;;;;;;4991855;28;19918;-85
2022/07/15 04:35:09;;;;;;;;;;;;;;;;;;4995382;28;19992;-85
2022/07/15 04:37:35;;;;;;;;;;;;;;;;;;4996303;28;20291;-84
2022/07/15 04:40:00;;;;;;;;;;;;;;;;;;4997121;28;19929;-85
2022/07/15 04:42:25;;;;;;;;;;;;;;;;;;4994306;28;19968;-84
2022/07/15 04:44:50;;;;;;;;;;;;;;;;;;4993151;28;19921;-84
2022/07/15 04:47:15;;;;;;;;;;;;;;;;;;4997036;28;19929;-85
2022/07/15 04:52:24;;;;;;;;;;;;;;;;;;4999409;28;20332;-84
2022/07/15 04:54:49;;;;;;;;;;;;;;;;;;4997865;28;19913;-85
2022/07/15 04:57:14;;;;;;;;;;;;;;;;;;5002383;28;20009;-84
2022/07/15 04:59:40;;;;;;;;;;;;;;;;;;4992118;28;19917;-84
2022/07/15 05:02:05;;;;;;;;;;;;;;;;;;4995656;28;19918;-84
2022/07/15 05:04:30;;;;;;;;;;;;;;;;;;4997032;28;20541;-83
2022/07/15 05:06:56;;;;;;;;;;;;;;;;;;4999928;28;19921;-84
2022/07/15 05:09:21;;;;;;;;;;;;;;;;;;4999754;28;20376;-84
2022/07/15 05:11:46;;;;;;;;;;;;;;;;;;4996571;28;19923;-85
2022/07/15 05:14:11;;;;;;;;;;;;;;;;;;4998751;28;20016;-85
2022/07/15 05:16:37;;;;;;;;;;;;;;;;;;5003630;28;20337;-85
2022/07/15 05:19:02;;;;;;;;;;;;;;;;;;4996381;28;20302;-84
2022/07/15 05:21:27;;;;;;;;;;;;;;;;;;4999472;28;19983;-84
2022/07/15 05:23:52;;;;;;;;;;;;;;;;;;5000717;28;19919;-85
2022/07/15 05:26:18;;;;;;;;;;;;;;;;;;4999476;28;20390;-85
2022/07/15 05:28:43;;;;;;;;;;;;;;;;;;4998999;28;19921;-85
2022/07/15 05:31:09;;;;;;;;;;;;;;;;;;4997805;28;19917;-83
2022/07/15 05:33:34;;;;;;;;;;;;;;;;;;4997238;28;19920;-85
2022/07/15 05:35:59;;;;;;;;;;;;;;;;;;4996110;28;19925;-84
2022/07/15 05:38:24;;;;;;;;;;;;;;;;;;4998497;28;20335;-84
2022/07/15 05:40:49;;;;;;;;;;;;;;;;;;4998857;28;19924;-83
2022/07/15 05:43:15;;;;;;;;;;;;;;;;;;5001379;28;20165;-83
2022/07/15 05:45:40;;;;;;;;;;;;;;;;;;5003911;28;19925;-84
2022/07/15 05:48:05;;;;;;;;;;;;;;;;;;5000921;28;19914;-84
2022/07/15 05:50:31;;;;;;;;;;;;;;;;;;5002840;28;19922;-83
2022/07/15 05:52:56;;;;;;;;;;;;;;;;;;5000751;28;20069;-84
2022/07/15 05:55:21;;;;;;;;;;;;;;;;;;4997698;28;19921;-83
2022/07/15 05:57:46;;;;;;;;;;;;;;;;;;4999982;28;19920;-84
2022/07/15 06:00:11;;;;;;;;;;;;;;;;;;5000489;28;20359;-84
2022/07/15 06:02:37;;;;;;;;;;;;;;;;;;5001122;28;20288;-83
2022/07/15 06:05:02;;;;;;;;;;;;;;;;;;5000002;28;19917;-83
2022/07/15 06:07:27;;;;;;;;;;;;;;;;;;5000021;28;19940;-84
2022/07/15 06:09:52;;;;;;;;;;;;;;;;;;5003097;28;19989;-85
2022/07/15 06:12:17;;;;;;;;;;;;;;;;;;4996449;28;20406;-85
2022/07/15 06:14:43;;;;;;;;;;;;;;;;;;4994658;28;19918;-83
2022/07/15 06:17:08;;;;;;;;;;;;;;;;;;5005740;28;20296;-85
2022/07/15 06:19:33;;;;;;;;;;;;;;;;;;5002474;28;19918;-84
2022/07/15 06:21:59;;;;;;;;;;;;;;;;;;4995656;28;20264;-85
2022/07/15 06:24:24;;;;;;;;;;;;;;;;;;4996206;28;19925;-84
2022/07/15 06:26:49;;;;;;;;;;;;;;;;;;5000471;28;20419;-83
2022/07/15 06:29:14;;;;;;;;;;;;;;;;;;4996695;28;20343;-84
2022/07/15 06:31:39;;;;;;;;;;;;;;;;;;4997132;28;19918;-85
2022/07/15 06:34:05;;;;;;;;;;;;;;;;;;4995770;28;20071;-85
2022/07/15 06:36:30;;;;;;;;;;;;;;;;;;4997870;28;19925;-84
2022/07/15 06:38:55;;;;;;;;;;;;;;;;;;4995676;28;20179;-84
2022/07/15 06:41:20;;;;;;;;;;;;;;;;;;4995735;28;20020;-84
2022/07/15 06:43:45;;;;;;;;;;;;;;;;;;4998297;28;20334;-85
2022/07/15 06:46:11;;;;;;;;;;;;;;;;;;4995953;28;19922;-83
2022/07/15 06:48:38;;;;;;;;;;;;;;;;;;4997976;28;20346;-84
2022/07/15 06:51:03;;;;;;;;;;;;;;;;;;4994211;28;20407;-83
2022/07/15 06:53:28;;;;;;;;;;;;;;;;;;4996041;28;19925;-83
2022/07/15 06:55:54;;;;;;;;;;;;;;;;;;4996886;28;19971;-85
2022/07/15 06:58:19;;;;;;;;;;;;;;;;;;4996187;28;20368;-84
2022/07/15 07:00:44;;;;;;;;;;;;;;;;;;4995247;28;19932;-83
2022/07/15 07:03:09;;;;;;;;;;;;;;;;;;4993411;28;19921;-85
2022/07/15 07:05:34;;;;;;;;;;;;;;;;;;4995147;28;20243;-85
2022/07/15 07:07:59;;;;;;;;;;;;;;;;;;4997331;28;19917;-83
2022/07/15 07:10:26;;;;;;;;;;;;;;;;;;5001240;28;20016;-85
2022/07/15 07:12:51;;;;;;;;;;;;;;;;;;4993588;28;19914;-85
2022/07/15 07:15:16;;;;;;;;;;;;;;;;;;4994154;28;20418;-83
2022/07/15 07:17:41;;;;;;;;;;;;;;;;;;4997322;28;19988;-84
2022/07/15 07:20:06;;;;;;;;;;;;;;;;;;4994589;28;20331;-86
2022/07/15 07:22:31;;;;;;;;;;;;;;;;;;4997387;28;19921;-85
2022/07/15 07:24:59;;;;;;;;;;;;;;;;;;4994843;28;20339;-85
2022/07/15 07:27:24;;;;;;;;;;;;;;;;;;4993878;28;19922;-84
2022/07/15 07:29:49;;;;;;;;;;;;;;;;;;4996959;28;20326;-85
2022/07/15 07:32:15;;;;;;;;;;;;;;;;;;4997163;28;20012;-84
2022/07/15 07:34:40;;;;;;;;;;;;;;;;;;4993197;28;19917;-85
2022/07/15 07:37:05;;;;;;;;;;;;;;;;;;4994890;28;20434;-85
2022/07/15 07:39:30;;;;;;;;;;;;;;;;;;4996224;28;19918;-85
2022/07/15 07:41:55;;;;;;;;;;;;;;;;;;4993515;28;20430;-84
2022/07/15 07:44:20;;;;;;;;;;;;;;;;;;4994241;28;20144;-85
2022/07/15 07:46:46;;;;;;;;;;;;;;;;;;4991147;28;20403;-85
2022/07/15 07:49:12;;;;;;;;;;;;;;;;;;4992091;28;20025;-84
2022/07/15 07:51:37;;;;;;;;;;;;;;;;;;4994538;28;20133;-83
2022/07/15 07:54:03;;;;;;;;;;;;;;;;;;4997461;28;19964;-84
2022/07/15 07:56:28;;;;;;;;;;;;;;;;;;4995916;28;20380;-84
2022/07/15 07:58:53;;;;;;;;;;;;;;;;;;4995638;28;19936;-84
2022/07/15 08:01:18;;;;;;;;;;;;;;;;;;4994658;28;20176;-84
2022/07/15 08:03:45;;;;;;;;;;;;;;;;;;4991976;28;19918;-85
2022/07/15 08:06:10;;;;;;;;;;;;;;;;;;4992009;28;19917;-84
2022/07/15 08:08:37;;;;;;;;;;;;;;;;;;4993814;28;20133;-84
2022/07/15 08:11:02;;;;;;;;;;;;;;;;;;4994204;28;20449;-85
2022/07/15 08:13:28;;;;;;;;;;;;;;;;;;4991865;28;20071;-85
2022/07/15 08:15:55;;;;;;;;;;;;;;;;;;4992966;28;19922;-85
2022/07/15 08:18:21;;;;;;;;;;;;;;;;;;4988385;28;20954;-84
2022/07/15 08:20:46;;;;;;;;;;;;;;;;;;4992785;28;19921;-85
2022/07/15 08:23:11;;;;;;;;;;;;;;;;;;4990930;28;20414;-84
2022/07/15 08:25:36;;;;;;;;;;;;;;;;;;4994900;28;20386;-83
2022/07/15 08:28:01;;;;;;;;;;;;;;;;;;4999384;28;19922;-84
2022/07/15 08:30:27;;;;;;;;;;;;;;;;;;4990747;28;19947;-84
2022/07/15 08:32:52;;;;;;;;;;;;;;;;;;4988915;28;20045;-84
2022/07/15 08:35:17;;;;;;;;;;;;;;;;;;4996131;28;20402;-84
2022/07/15 08:37:42;;;;;;;;;;;;;;;;;;4993850;28;19969;-84
2022/07/15 08:40:10;;;;;;;;;;;;;;;;;;4998934;28;20330;-84
2022/07/15 08:42:35;;;;;;;;;;;;;;;;;;4995044;28;19922;-85
2022/07/15 08:45:00;;;;;;;;;;;;;;;;;;4997913;28;19980;-84
2022/07/15 08:47:25;;;;;;;;;;;;;;;;;;4996530;28;19918;-84
2022/07/15 08:49:51;;;;;;;;;;;;;;;;;;4999952;28;19940;-85
2022/07/15 08:52:16;;;;;;;;;;;;;;;;;;4998599;28;19917;-85
2022/07/15 08:54:41;;;;;;;;;;;;;;;;;;4993059;28;20001;-85
2022/07/15 08:57:06;;;;;;;;;;;;;;;;;;4995987;28;20288;-85
2022/07/15 08:59:32;;;;;;;;;;;;;;;;;;4994090;28;19960;-84
2022/07/15 09:01:57;;;;;;;;;;;;;;;;;;5005080;28;19921;-84
2022/07/15 09:04:22;;;;;;;;;;;;;;;;;;4996473;28;19924;-84
2022/07/15 09:06:47;;;;;;;;;;;;;;;;;;4998011;28;19933;-83
2022/07/15 09:09:13;;;;;;;;;;;;;;;;;;4991771;28;19972;-84
2022/07/15 09:11:38;;;;;;;;;;;;;;;;;;4997522;28;20304;-85
2022/07/15 09:14:05;;;;;;;;;;;;;;;;;;4997119;28;19917;-84
2022/07/15 09:16:30;;;;;;;;;;;;;;;;;;4990776;28;19922;-84
2022/07/15 09:18:56;;;;;;;;;;;;;;;;;;4997505;28;19918;-84
2022/07/15 09:21:21;;;;;;;;;;;;;;;;;;4995060;28;19929;-84
2022/07/15 09:23:46;;;;;;;;;;;;;;;;;;4992367;28;19922;-86
2022/07/15 09:26:11;;;;;;;;;;;;;;;;;;4995478;28;19956;-82
2022/07/15 09:28:37;;;;;;;;;;;;;;;;;;4995705;28;19920;-83
2022/07/15 09:33:47;;;;;;;;;;;;;;;;;;4996128;28;20005;-84
2022/07/15 09:36:12;;;;;;;;;;;;;;;;;;4998631;28;20059;-84
2022/07/15 09:38:40;;;;;;;;;;;;;;;;;;4996798;28;19921;-83
2022/07/15 09:41:05;;;;;;;;;;;;;;;;;;4999819;28;19952;-84
2022/07/15 09:43:31;;;;;;;;;;;;;;;;;;4996214;28;19924;-84
2022/07/15 09:45:56;;;;;;;;;;;;;;;;;;4998052;28;20053;-84
2022/07/15 09:48:21;;;;;;;;;;;;;;;;;;4995685;28;19928;-84
2022/07/15 09:50:47;;;;;;;;;;;;;;;;;;4999296;28;19980;-83
2022/07/15 09:53:12;;;;;;;;;;;;;;;;;;4998612;28;19914;-82
2022/07/15 09:55:37;;;;;;;;;;;;;;;;;;4999040;28;19924;-83
2022/07/15 09:58:04;;;;;;;;;;;;;;;;;;4995995;28;19914;-83
2022/07/15 10:00:29;;;;;;;;;;;;;;;;;;4994044;28;19964;-83
2022/07/15 10:02:54;;;;;;;;;;;;;;;;;;4998539;28;19943;-85
2022/07/15 10:05:20;;;;;;;;;;;;;;;;;;4990480;28;19944;-84
2022/07/15 10:07:45;;;;;;;;;;;;;;;;;;4993240;28;19918;-85
2022/07/15 10:10:11;;;;;;;;;;;;;;;;;;5000214;28;19914;-84
2022/07/15 10:12:36;;;;;;;;;;;;;;;;;;5000238;28;19921;-83
2022/07/15 10:15:01;;;;;;;;;;;;;;;;;;5001205;28;20102;-84
2022/07/15 10:17:27;;;;;;;;;;;;;;;;;;4999217;28;19917;-84
2022/07/15 10:19:52;;;;;;;;;;;;;;;;;;4998381;28;20399;-83
2022/07/15 10:22:17;;;;;;;;;;;;;;;;;;4996131;28;19921;-85
2022/07/15 10:24:43;;;;;;;;;;;;;;;;;;4999398;28;19953;-84
2022/07/15 10:27:08;;;;;;;;;;;;;;;;;;5002918;28;19917;-84
2022/07/15 10:29:33;;;;;;;;;;;;;;;;;;4999629;28;20454;-84
2022/07/15 10:31:59;;;;;;;;;;;;;;;;;;4999253;28;20309;-84
2022/07/15 10:34:24;;;;;;;;;;;;;;;;;;4999382;28;20670;-84
2022/07/15 10:36:57;;;;;;;;;;;;;;;;;;5002445;28;19980;-84
2022/07/15 10:39:22;;;;;;;;;;;;;;;;;;4995304;28;19929;-84
2022/07/15 10:41:47;;;;;;;;;;;;;;;;;;4997056;28;19922;-85
2022/07/15 10:44:12;;;;;;;;;;;;;;;;;;4998189;28;19929;-84
2022/07/15 10:46:37;;;;;;;;;;;;;;;;;;4992372;28;19918;-84
2022/07/15 10:49:02;;;;;;;;;;;;;;;;;;5004929;28;19925;-84
2022/07/15 10:51:28;;;;;;;;;;;;;;;;;;4999088;28;19918;-83
2022/07/15 10:53:53;;;;;;;;;;;;;;;;;;4994748;28;19928;-85
2022/07/15 10:56:18;;;;;;;;;;;;;;;;;;4995629;28;19973;-84
2022/07/15 10:58:43;;;;;;;;;;;;;;;;;;4994607;28;20276;-84
2022/07/15 11:01:08;;;;;;;;;;;;;;;;;;4996997;28;20002;-83
2022/07/15 11:03:33;;;;;;;;;;;;;;;;;;4998863;28;20260;-84
2022/07/15 11:05:59;;;;;;;;;;;;;;;;;;4998203;28;20048;-84
2022/07/15 11:08:24;;;;;;;;;;;;;;;;;;5001529;28;19952;-83
2022/07/15 11:10:50;;;;;;;;;;;;;;;;;;4991875;28;19913;-83
2022/07/15 11:13:15;;;;;;;;;;;;;;;;;;5001878;28;19914;-84
2022/07/15 11:15:40;;;;;;;;;;;;;;;;;;4997216;28;19922;-84
2022/07/15 11:18:05;;;;;;;;;;;;;;;;;;5000278;28;20015;-84
2022/07/15 11:20:30;;;;;;;;;;;;;;;;;;4998081;28;20075;-85
2022/07/15 11:22:56;;;;;;;;;;;;;;;;;;4997178;28;20001;-85
2022/07/15 11:25:21;;;;;;;;;;;;;;;;;;4999271;28;19929;-83
2022/07/15 11:27:46;;;;;;;;;;;;;;;;;;4995726;28;19914;-83
2022/07/15 11:30:11;;;;;;;;;;;;;;;;;;4994501;28;19925;-83
2022/07/15 11:32:37;;;;;;;;;;;;;;;;;;4999679;28;19918;-84
2022/07/15 11:35:02;;;;;;;;;;;;;;;;;;5000218;28;20034;-84
2022/07/15 11:37:27;;;;;;;;;;;;;;;;;;4997380;28;19972;-84
2022/07/15 11:39:52;;;;;;;;;;;;;;;;;;4999067;28;19941;-84
2022/07/15 11:45:01;;;;;;;;;;;;;;;;;;4997600;28;19928;-83
2022/07/15 11:47:26;;;;;;;;;;;;;;;;;;5001376;28;19917;-84
2022/07/15 11:49:51;;;;;;;;;;;;;;;;;;5003865;28;20264;-84
2022/07/15 11:52:17;;;;;;;;;;;;;;;;;;4996641;28;19917;-85
2022/07/15 11:54:42;;;;;;;;;;;;;;;;;;4990244;28;20269;-83
2022/07/15 11:57:07;;;;;;;;;;;;;;;;;;4993864;28;19918;-84
2022/07/15 11:59:32;;;;;;;;;;;;;;;;;;4992049;28;19922;-84
2022/07/15 12:01:58;;;;;;;;;;;;;;;;;;4997232;28;20498;-83
2022/07/15 12:04:23;;;;;;;;;;;;;;;;;;4993076;28;20400;-84
2022/07/15 12:06:48;;;;;;;;;;;;;;;;;;4998057;28;19917;-83
2022/07/15 12:09:13;;;;;;;;;;;;;;;;;;4994323;28;20323;-84
2022/07/15 12:11:39;;;;;;;;;;;;;;;;;;4997851;28;19933;-84
2022/07/15 12:14:04;;;;;;;;;;;;;;;;;;4997506;28;20640;-83
2022/07/15 12:16:29;;;;;;;;;;;;;;;;;;4996287;28;19923;-84
2022/07/15 12:18:54;;;;;;;;;;;;;;;;;;4998454;28;19917;-85
2022/07/15 12:21:19;;;;;;;;;;;;;;;;;;4993040;28;19917;-84
2022/07/15 12:23:44;;;;;;;;;;;;;;;;;;4996022;28;19924;-84
2022/07/15 12:26:10;;;;;;;;;;;;;;;;;;4997658;28;20279;-84
2022/07/15 12:28:35;;;;;;;;;;;;;;;;;;5000100;28;20041;-83
2022/07/15 12:31:00;;;;;;;;;;;;;;;;;;4997847;28;21400;-83
2022/07/15 12:33:25;;;;;;;;;;;;;;;;;;4993948;28;19917;-84
2022/07/15 12:35:50;;;;;;;;;;;;;;;;;;4994188;28;19956;-84
2022/07/15 12:38:16;;;;;;;;;;;;;;;;;;4993401;28;20406;-84
2022/07/15 12:40:41;;;;;;;;;;;;;;;;;;4990487;28;20337;-84
2022/07/15 12:43:08;;;;;;;;;;;;;;;;;;4995955;28;19943;-84
2022/07/15 12:45:33;;;;;;;;;;;;;;;;;;4991307;28;19996;-85
2022/07/15 12:47:59;;;;;;;;;;;;;;;;;;4993783;28;20004;-84
2022/07/15 12:50:24;;;;;;;;;;;;;;;;;;4995830;28;19929;-85
2022/07/15 12:52:49;;;;;;;;;;;;;;;;;;4997233;28;19924;-84
2022/07/15 12:55:14;;;;;;;;;;;;;;;;;;4996603;28;20052;-81
2022/07/15 12:57:40;;;;;;;;;;;;;;;;;;4994484;28;20430;-80
2022/07/15 13:00:06;;;;;;;;;;;;;;;;;;4999371;28;19917;-82
2022/07/15 13:02:31;;;;;;;;;;;;;;;;;;4993071;28;19925;-82
2022/07/15 13:04:56;;;;;;;;;;;;;;;;;;4994098;28;19920;-81
2022/07/15 13:07:21;;;;;;;;;;;;;;;;;;4994762;28;19968;-81
2022/07/15 13:09:47;;;;;;;;;;;;;;;;;;4995149;28;21283;-81
2022/07/15 13:12:12;;;;;;;;;;;;;;;;;;4999153;28;20419;-81
2022/07/15 13:14:37;;;;;;;;;;;;;;;;;;4999182;28;19933;-81
2022/07/15 13:17:02;;;;;;;;;;;;;;;;;;4997987;28;19936;-81
2022/07/15 13:19:27;;;;;;;;;;;;;;;;;;5003852;28;19921;-82
2022/07/15 13:21:52;;;;;;;;;;;;;;;;;;5001505;28;19945;-82
2022/07/15 13:24:18;;;;;;;;;;;;;;;;;;5003426;28;19921;-81
2022/07/15 13:26:43;;;;;;;;;;;;;;;;;;5004338;28;20015;-81
2022/07/15 13:29:08;;;;;;;;;;;;;;;;;;5002133;28;19924;-81
2022/07/15 13:31:33;;;;;;;;;;;;;;;;;;4998655;28;20295;-81
2022/07/15 13:33:58;;;;;;;;;;;;;;;;;;5000724;28;19924;-82
2022/07/15 13:36:24;;;;;;;;;;;;;;;;;;4999894;28;19922;-81
2022/07/15 13:38:49;;;;;;;;;;;;;;;;;;4996479;28;20012;-81
2022/07/15 13:41:14;;;;;;;;;;;;;;;;;;4995656;28;20307;-81
2022/07/15 13:43:39;;;;;;;;;;;;;;;;;;5000986;28;19925;-82
2022/07/15 13:46:05;;;;;;;;;;;;;;;;;;4989160;28;19921;-80
2022/07/15 13:48:30;;;;;;;;;;;;;;;;;;5001284;28;20036;-81
2022/07/15 13:53:39;;;;;;;;;;;;;;;;;;5001933;28;19979;-83
2022/07/15 13:56:04;;;;;;;;;;;;;;;;;;4999608;28;20335;-82
2022/07/15 13:58:30;;;;;;;;;;;;;;;;;;4997276;28;19921;-80
2022/07/15 14:00:55;;;;;;;;;;;;;;;;;;4997272;28;19979;-82
2022/07/15 14:03:20;;;;;;;;;;;;;;;;;;4997876;28;20366;-82
2022/07/15 14:05:45;;;;;;;;;;;;;;;;;;4999301;28;19981;-81
2022/07/15 14:08:10;;;;;;;;;;;;;;;;;;4998938;28;19914;-81
2022/07/15 14:10:36;;;;;;;;;;;;;;;;;;5001379;28;19917;-83
2022/07/15 14:13:01;;;;;;;;;;;;;;;;;;5002449;28;20398;-83
2022/07/15 14:15:26;;;;;;;;;;;;;;;;;;4998542;28;19914;-84
2022/07/15 14:17:51;;;;;;;;;;;;;;;;;;5001484;28;19925;-83
2022/07/15 14:20:17;;;;;;;;;;;;;;;;;;4999748;28;19922;-84
2022/07/15 14:22:42;;;;;;;;;;;;;;;;;;5003475;28;20402;-83
2022/07/15 14:25:08;;;;;;;;;;;;;;;;;;5005639;28;19960;-85
2022/07/15 14:27:33;;;;;;;;;;;;;;;;;;5005451;28;20261;-84
2022/07/15 14:29:58;;;;;;;;;;;;;;;;;;4998958;28;19960;-84
2022/07/15 14:32:23;;;;;;;;;;;;;;;;;;4996557;28;20161;-86
2022/07/15 14:34:49;;;;;;;;;;;;;;;;;;4998011;28;19917;-84
2022/07/15 14:37:14;;;;;;;;;;;;;;;;;;5000897;28;19949;-85
2022/07/15 14:39:39;;;;;;;;;;;;;;;;;;4999087;28;19928;-84
2022/07/15 14:42:04;;;;;;;;;;;;;;;;;;5000311;28;19957;-84
2022/07/15 14:44:29;;;;;;;;;;;;;;;;;;4998071;28;19929;-85
2022/07/15 14:46:55;;;;;;;;;;;;;;;;;;4999406;28;19918;-84
2022/07/15 14:49:20;;;;;;;;;;;;;;;;;;4996198;28;20001;-84
2022/07/15 14:51:48;;;;;;;;;;;;;;;;;;4997295;28;19925;-85
2022/07/15 14:54:13;;;;;;;;;;;;;;;;;;4995924;28;19913;-85
2022/07/15 14:56:38;;;;;;;;;;;;;;;;;;4996410;28;19924;-85
2022/07/15 14:59:04;;;;;;;;;;;;;;;;;;4997141;28;20173;-85
2022/07/15 15:01:29;;;;;;;;;;;;;;;;;;4998040;28;19921;-86
2022/07/15 15:03:54;;;;;;;;;;;;;;;;;;4997582;28;20334;-85
2022/07/15 15:06:19;;;;;;;;;;;;;;;;;;4997271;28;19913;-85
2022/07/15 15:08:44;;;;;;;;;;;;;;;;;;4998067;28;19957;-85
2022/07/15 15:11:10;;;;;;;;;;;;;;;;;;4997559;28;19952;-85
2022/07/15 15:13:35;;;;;;;;;;;;;;;;;;4994594;28;19918;-85
2022/07/15 15:16:05;;;;;;;;;;;;;;;;;;4997690;28;19921;-85
2022/07/15 15:18:49;;;;;;;;;;;;;;;;;;4996500;28;19949;-84
2022/07/15 15:21:29;;;;;;;;;;;;;;;;;;5001855;28;19921;-87
2022/07/15 15:24:00;;;;;;;;;;;;;;;;;;5002424;28;19924;-83
2022/07/15 15:26:34;;;;;;;;;;;;;;;;;;4997723;28;19925;-85
2022/07/15 15:29:00;;;;;;;;;;;;;;;;;;4996543;28;19914;-85
2022/07/15 15:37:13;;;;;;;;;;;;;;;;;;4957489;28;19985;-85
2022/07/15 15:43:17;;;;;;;;;;;;;;;;;;;;;
2022/07/15 15:45:43;;;;;;;;;;;;;;;;;;4968246;28;20322;-85
2022/07/15 15:48:08;;;;;;;;;;;;;;;;;;4992117;28;19927;-84
2022/07/15 15:50:33;;;;;;;;;;;;;;;;;;4996383;28;20147;-83
2022/07/15 15:52:58;;;;;;;;;;;;;;;;;;4997186;28;20427;-84
2022/07/15 15:55:24;;;;;;;;;;;;;;;;;;4995311;28;20055;-84
2022/07/15 15:57:49;;;;;;;;;;;;;;;;;;4997604;28;20016;-83
2022/07/15 16:00:23;;;;;;;;;;;;;;;;;;4993925;28;20060;-85
2022/07/15 16:28:24;;;;;;;;;;;;;;;;;;4929339;28;19921;-83
2022/07/15 16:33:49;;;;;;;;;;;;;;;;;;4945841;28;19921;-84
2022/07/15 16:41:41;;;;;;;;;;;;;;;;;;5040390;28;19924;-82
2022/07/15 16:47:06;;;;;;;;;;;;;;;;;;5028643;28;19917;-83
2022/07/15 16:52:20;;;;;;;;;;;;;;;;;;5019433;28;19913;-83
2022/07/15 16:54:59;;;;;;;;;;;;;;;;;;;;;
2022/07/15 16:57:27;;;;;;;;;;;;;;;;;;4969641;28;19917;-82
2022/07/15 16:59:54;;;;;;;;;;;;;;;;;;5023308;28;19913;-83
2022/07/15 17:02:21;;;;;;;;;;;;;;;;;;5025852;28;20658;-83
2022/07/15 17:04:47;;;;;;;;;;;;;;;;;;5024896;28;19910;-83
2022/07/15 17:07:17;;;;;;;;;;;;;;;;;;5023779;28;19916;-84
2022/07/15 17:09:57;;;;;;;;;;;;;;;;;;5024041;28;19913;-83
2022/07/15 17:12:43;;;;;;;;;;;;;;;;;;5021474;28;19916;-83
2022/07/15 17:15:10;;;;;;;;;;;;;;;;;;5031384;28;19909;-82
2022/07/15 17:25:55;;;;;;;;;;;;;;;;;;5011908;28;19917;-83
2022/07/15 17:28:20;;;;;;;;;;;;;;;;;;5030470;28;19936;-82
2022/07/15 17:30:54;;;;;;;;;;;;;;;;;;5025283;28;20508;-83
2022/07/15 17:33:22;;;;;;;;;;;;;;;;;;5021835;28;20275;-84
2022/07/15 17:44:18;;;;;;;;;;;;;;;;;;4969138;28;19920;-83
2022/07/15 17:46:45;;;;;;;;;;;;;;;;;;5028516;28;20371;-84
2022/07/15 17:49:11;;;;;;;;;;;;;;;;;;5022197;28;19905;-83
2022/07/15 17:51:38;;;;;;;;;;;;;;;;;;5023424;28;20379;-82
2022/07/15 17:54:03;;;;;;;;;;;;;;;;;;5027972;28;19916;-83